createdAt,value
2022-10-28T00:00:37.523Z,101782.94
2022-10-28T00:05:40.957Z,101782.09
2022-10-28T00:10:43.254Z,101795.38
2022-10-28T00:15:45.276Z,101784.75
2022-10-28T00:20:48.777Z,101782.09
2022-10-28T00:25:50.804Z,101787.41
2022-10-28T00:30:52.422Z,101788.34
2022-10-28T00:35:55.764Z,101774.09
2022-10-28T00:40:57.692Z,101770.56
2022-10-28T00:45:59.839Z,101774.97
2022-10-28T00:51:03.541Z,101782.97
2022-10-28T00:56:07.409Z,101774.94
2022-10-28T01:01:09.351Z,101775.78
2022-10-28T01:06:13.349Z,101769.50
2022-10-28T01:11:40.840Z,101759.75
2022-10-28T01:16:57.469Z,101775.69
2022-10-28T01:22:10.814Z,101773.94
2022-10-28T01:27:43.687Z,101769.56
2022-10-28T01:32:58.144Z,101751.00
2022-10-28T01:38:27.367Z,101755.53
2022-10-28T01:43:34.812Z,101754.69
2022-10-28T01:48:45.483Z,101744.06
2022-10-28T01:53:51.699Z,101733.38
2022-10-28T01:58:56.097Z,101736.94
2022-10-28T02:03:59.724Z,101728.06
2022-10-28T02:09:12.591Z,101743.09
2022-10-28T02:14:48.392Z,101735.13
2022-10-28T02:20:00.969Z,101724.53
2022-10-28T02:25:08.227Z,101740.50
2022-10-28T02:30:15.197Z,101748.47
2022-10-28T02:35:23.281Z,101740.50
2022-10-28T02:40:28.148Z,101731.66
2022-10-28T02:45:35.292Z,101736.09
2022-10-28T02:50:43.976Z,101729.91
2022-10-28T02:55:50.993Z,101727.22
2022-10-28T03:00:53.320Z,101733.44
2022-10-28T03:05:56.767Z,101732.53
2022-10-28T03:10:58.651Z,101722.78
2022-10-28T03:16:00.646Z,101722.75
2022-10-28T03:21:04.170Z,101722.75
2022-10-28T03:26:07.318Z,101736.03
2022-10-28T03:31:09.364Z,101722.69
2022-10-28T03:36:12.892Z,101731.56
2022-10-28T03:41:14.703Z,101734.22
2022-10-28T03:46:17.163Z,101732.44
2022-10-28T03:51:20.728Z,101723.50
2022-10-28T03:56:22.922Z,101720.84
2022-10-28T04:01:25.127Z,101714.63
2022-10-28T04:06:28.523Z,101704.00
2022-10-28T04:11:30.529Z,101732.31
2022-10-28T04:16:32.159Z,101732.31
2022-10-28T04:21:35.246Z,101731.31
2022-10-28T04:26:37.273Z,101722.44
2022-10-28T04:31:39.303Z,101706.50
2022-10-28T04:36:42.739Z,101694.97
2022-10-28T04:41:44.904Z,101695.94
2022-10-28T04:46:47.315Z,101714.47
2022-10-28T04:51:50.721Z,101710.03
2022-10-28T04:56:53.914Z,101708.25
2022-10-28T05:01:56.264Z,101699.38
2022-10-28T05:06:59.710Z,101704.72
2022-10-28T05:12:01.770Z,101697.59
2022-10-28T05:17:03.819Z,101701.97
2022-10-28T05:22:07.146Z,101688.69
2022-10-28T05:27:09.383Z,101687.00
2022-10-28T05:32:11.583Z,101681.75
2022-10-28T05:37:15.210Z,101687.94
2022-10-28T05:42:17.309Z,101693.31
2022-10-28T05:47:19.657Z,101692.44
2022-10-28T05:52:23.168Z,101689.84
2022-10-28T05:57:24.788Z,101692.53
2022-10-28T06:02:26.945Z,101692.56
2022-10-28T06:07:30.248Z,101689.06
2022-10-28T06:12:30.696Z,101677.59
2022-10-28T06:17:32.409Z,101670.50
2022-10-28T06:22:35.746Z,101668.75
2022-10-28T06:27:37.785Z,101654.56
2022-10-28T06:32:39.877Z,101674.00
2022-10-28T06:37:43.555Z,101680.19
2022-10-28T06:42:45.418Z,101690.84
2022-10-28T06:47:48.821Z,101688.19
2022-10-28T06:52:52.646Z,101687.25
2022-10-28T06:57:58.723Z,101676.53
2022-10-28T07:03:01.155Z,101701.31
2022-10-28T07:08:05.550Z,101695.97
2022-10-28T07:13:07.405Z,101693.25
2022-10-28T07:18:09.594Z,101702.88
2022-10-28T07:23:13.005Z,101686.78
2022-10-28T07:28:15.026Z,101672.41
2022-10-28T07:33:17.850Z,101674.81
2022-10-28T07:38:20.994Z,101658.63
2022-10-28T07:43:23.100Z,101665.84
2022-10-28T07:48:25.489Z,101667.63
2022-10-28T07:53:29.538Z,101686.22
2022-10-28T07:58:31.909Z,101680.63
2022-10-28T08:03:38.625Z,101696.44
2022-10-28T08:08:42.839Z,101692.59
2022-10-28T08:13:45.359Z,101692.38
2022-10-28T08:18:47.448Z,101692.09
2022-10-28T08:23:50.879Z,101684.50
2022-10-28T08:28:53.102Z,101684.94
2022-10-28T08:33:54.861Z,101678.66
2022-10-28T08:38:58.348Z,101658.56
2022-10-28T08:44:27.158Z,101678.47
2022-10-28T08:49:33.245Z,101674.16
2022-10-28T08:54:43.125Z,101661.31
2022-10-28T08:59:46.507Z,101658.97
2022-10-28T09:04:51.696Z,101653.22
2022-10-28T09:09:56.105Z,101661.56
2022-10-28T09:15:12.301Z,101660.78
2022-10-28T09:20:19.381Z,101657.72
2022-10-28T09:25:28.400Z,101647.53
2022-10-28T09:30:40.488Z,101637.22
2022-10-28T09:35:44.770Z,101641.13
2022-10-28T09:40:52.875Z,101635.53
2022-10-28T09:46:00.481Z,101637.97
2022-10-28T09:51:02.975Z,101652.69
2022-10-28T10:01:15.659Z,101649.03
2022-10-28T10:06:20.243Z,101637.16
2022-10-28T10:11:30.861Z,101638.72
2022-10-28T10:16:40.897Z,101645.38
2022-10-28T10:21:47.815Z,101633.50
2022-10-28T10:26:51.381Z,101632.56
2022-10-28T10:32:16.855Z,101634.00
2022-10-28T10:37:21.440Z,101616.59
2022-10-28T10:42:24.895Z,101613.56
2022-10-28T10:47:27.175Z,101601.25
2022-10-28T10:52:29.453Z,101592.31
2022-10-28T10:57:34.548Z,101581.78
2022-10-28T11:02:39.212Z,101583.53
2022-10-28T11:07:47.170Z,101590.22
2022-10-28T11:12:54.582Z,101571.88
2022-10-28T11:17:59.745Z,101573.34
2022-10-28T11:23:17.593Z,101563.38
2022-10-28T11:28:34.374Z,101556.06
2022-10-28T11:33:44.861Z,101551.91
2022-10-28T11:39:15.966Z,101547.00
2022-10-28T11:44:33.119Z,101543.97
2022-10-28T11:50:01.709Z,101539.84
2022-10-28T11:55:18.312Z,101543.66
2022-10-28T12:00:41.134Z,101537.66
2022-10-28T12:05:47.639Z,101539.56
2022-10-28T12:10:59.365Z,101540.19
2022-10-28T12:16:11.450Z,101544.84
2022-10-28T12:21:20.609Z,101543.84
2022-10-28T12:26:35.824Z,101546.63
2022-10-28T12:31:45.075Z,101538.06
2022-10-28T12:36:50.725Z,101543.25
2022-10-28T12:42:00.298Z,101531.00
2022-10-28T12:47:16.939Z,101522.75
2022-10-28T12:52:32.064Z,101517.75
2022-10-28T12:57:36.949Z,101516.84
2022-10-28T13:02:47.435Z,101512.22
2022-10-28T13:08:17.566Z,101507.44
2022-10-28T13:13:43.758Z,101503.16
2022-10-28T13:19:15.663Z,101497.63
2022-10-28T13:24:21.621Z,101487.72
2022-10-28T13:34:34.112Z,101475.53
2022-10-28T13:39:43.629Z,101473.28
2022-10-28T13:44:50.086Z,101476.25
2022-10-28T13:50:40.948Z,101475.44
2022-10-28T13:55:45.140Z,101472.44
2022-10-28T14:00:50.494Z,101484.63
2022-10-28T14:05:57.464Z,101483.53
2022-10-28T14:11:04.369Z,101485.13
2022-10-28T14:16:21.919Z,101469.00
2022-10-28T14:21:24.461Z,101468.56
2022-10-28T14:26:27.437Z,101476.28
2022-10-28T14:31:43.211Z,101466.69
2022-10-28T14:36:53.518Z,101471.22
2022-10-28T14:42:22.735Z,101467.34
2022-10-28T14:47:44.174Z,101461.22
2022-10-28T14:52:48.085Z,101458.00
2022-10-28T14:57:51.464Z,101459.03
2022-10-28T15:02:55.306Z,101460.34
2022-10-28T15:08:03.084Z,101462.75
2022-10-28T15:13:06.936Z,101452.03
2022-10-28T15:18:22.066Z,101443.22
2022-10-28T15:23:24.614Z,101451.22
2022-10-28T15:28:27.817Z,101445.94
2022-10-28T15:33:30.909Z,101454.41
2022-10-28T15:38:38.405Z,101446.47
2022-10-28T15:43:41.849Z,101446.28
2022-10-28T15:48:44.107Z,101450.69
2022-10-28T15:53:46.519Z,101448.19
2022-10-28T15:59:03.470Z,101442.63
2022-10-28T16:04:06.349Z,101439.47
2022-10-28T16:09:18.076Z,101431.56
2022-10-28T16:14:32.067Z,101446.66
2022-10-28T16:19:37.936Z,101442.63
2022-10-28T16:24:40.027Z,101434.75
2022-10-28T16:29:43.407Z,101441.56
2022-10-28T16:34:45.543Z,101436.91
2022-10-28T16:39:47.307Z,101441.94
2022-10-28T16:44:51.185Z,101446.97
2022-10-28T16:49:57.248Z,101441.03
2022-10-28T16:55:00.430Z,101429.03
2022-10-28T17:00:04.643Z,101425.16
2022-10-28T17:05:14.851Z,101427.44
2022-10-28T17:10:18.211Z,101438.78
2022-10-28T17:15:21.233Z,101441.00
2022-10-28T17:20:23.312Z,101440.00
2022-10-28T17:25:25.270Z,101443.91
2022-10-28T17:30:28.483Z,101443.25
2022-10-28T17:35:30.430Z,101441.84
2022-10-28T17:40:32.466Z,101447.50
2022-10-28T17:45:36.033Z,101454.75
2022-10-28T17:50:38.281Z,101452.59
2022-10-28T17:55:40.329Z,101449.22
2022-10-28T18:00:43.755Z,101446.44
2022-10-28T18:05:45.782Z,101449.66
2022-10-28T18:10:51.800Z,101448.38
2022-10-28T18:15:54.868Z,101444.97
2022-10-28T18:20:57.165Z,101450.34
2022-10-28T18:25:59.333Z,101445.50
2022-10-28T18:31:03.335Z,101444.19
2022-10-28T18:36:07.338Z,101448.06
2022-10-28T18:41:11.451Z,101444.63
2022-10-28T18:46:15.167Z,101451.06
2022-10-28T18:51:17.366Z,101439.91
2022-10-28T18:56:21.056Z,101448.34
2022-10-28T19:01:26.330Z,101444.06
2022-10-28T19:06:30.897Z,101446.63
2022-10-28T19:11:34.156Z,101446.16
2022-10-28T19:16:37.771Z,101451.56
2022-10-28T19:21:39.975Z,101455.34
2022-10-28T19:26:42.203Z,101446.78
2022-10-28T19:31:45.842Z,101447.72
2022-10-28T19:36:47.810Z,101448.88
2022-10-28T19:41:49.679Z,101455.69
2022-10-28T19:46:53.160Z,101461.28
2022-10-28T19:51:55.398Z,101460.84
2022-10-28T19:56:57.148Z,101463.13
2022-10-28T20:02:00.380Z,101476.84
2022-10-28T20:07:02.345Z,101484.19
2022-10-28T20:12:04.814Z,101471.19
2022-10-28T20:17:08.432Z,101490.13
2022-10-28T20:22:10.240Z,101501.97
2022-10-28T20:27:12.343Z,101489.66
2022-10-28T20:32:16.941Z,101494.25
2022-10-28T20:37:19.044Z,101503.22
2022-10-28T20:42:21.521Z,101505.06
2022-10-28T20:47:24.653Z,101499.88
2022-10-28T20:52:26.656Z,101500.84
2022-10-28T20:57:28.313Z,101497.28
2022-10-28T21:02:31.464Z,101507.97
2022-10-28T21:07:33.451Z,101508.00
2022-10-28T21:12:35.242Z,101514.38
2022-10-28T21:17:38.360Z,101516.25
2022-10-28T21:22:40.570Z,101513.56
2022-10-28T21:27:42.979Z,101511.84
2022-10-28T21:32:46.294Z,101513.69
2022-10-28T21:37:48.269Z,101510.91
2022-10-28T21:42:50.350Z,101514.50
2022-10-28T21:47:55.895Z,101501.25
2022-10-28T21:52:59.719Z,101517.94
2022-10-28T21:58:04.173Z,101512.69
2022-10-28T22:03:07.755Z,101519.84
2022-10-28T22:08:10.060Z,101517.31
2022-10-28T22:13:12.196Z,101528.03
2022-10-28T22:18:15.429Z,101527.13
2022-10-28T22:23:17.564Z,101536.09
2022-10-28T22:28:19.658Z,101547.66
2022-10-28T22:33:23.244Z,101535.22
2022-10-28T22:38:25.937Z,101538.75
2022-10-28T22:43:27.932Z,101546.72
2022-10-28T22:48:31.841Z,101545.69
2022-10-28T22:53:33.792Z,101553.56
2022-10-28T22:58:35.900Z,101564.94
2022-10-28T23:03:41.134Z,101577.28
2022-10-28T23:08:44.545Z,101571.94
2022-10-28T23:13:49.724Z,101578.13
2022-10-28T23:18:53.246Z,101577.25
2022-10-28T23:23:56.858Z,101575.44
2022-10-28T23:28:59.985Z,101576.41
2022-10-28T23:34:03.348Z,101576.44
2022-10-28T23:39:05.372Z,101575.69
2022-10-28T23:44:07.524Z,101583.81
2022-10-28T23:49:10.888Z,101583.03
2022-10-28T23:54:12.706Z,101579.63
2022-10-28T23:59:14.861Z,101601.91
